Time;durP1;ratioP1;P1;durP2;ratioP2;P2;SDS_P1;SDS_P2;PMS_P1;PMS_P2;Temp;Humidity;BMP_temperature;BMP_pressure;BME280_temperature;BME280_humidity;BME280_pressure;Samples;Min_cycle;Max_cycle;Signal;HPM_P1;HPM_P2
2023/10/14 00:04:33;;;;;;;6.53;2.40;;;;;;;;;;12872640;23;20515;-76
2023/10/14 00:09:43;;;;;;;4.40;2.33;;;;;;;;;;12872168;23;20017;-76
2023/10/14 00:14:48;;;;;;;8.80;2.53;;;;;;;;;;12871370;23;20031;-76
2023/10/14 00:19:55;;;;;;;7.37;3.37;;;;;;;;;;12871356;23;20095;-77
2023/10/14 00:24:58;;;;;;;7.03;3.30;;;;;;;;;;12827484;23;20392;-76
2023/10/14 00:30:09;;;;;;;7.25;2.88;;;;;;;;;;12853852;23;20031;-76
2023/10/14 00:35:18;;;;;;;8.27;3.17;;;;;;;;;;12868844;23;20035;-76
2023/10/14 00:40:23;;;;;;;5.53;2.90;;;;;;;;;;12868105;23;20087;-76
2023/10/14 00:45:26;;;;;;;9.20;2.97;;;;;;;;;;12867785;23;20036;-76
2023/10/14 00:50:33;;;;;;;8.43;3.30;;;;;;;;;;12866385;23;20063;-77
2023/10/14 00:55:52;;;;;;;5.63;2.72;;;;;;;;;;12829843;23;20027;-77
2023/10/14 01:00:58;;;;;;;23.10;3.97;;;;;;;;;;12865604;23;20051;-76
2023/10/14 01:06:20;;;;;;;12.32;3.08;;;;;;;;;;12822591;23;20039;-77
2023/10/14 01:11:24;;;;;;;9.00;3.30;;;;;;;;;;12825332;23;20107;-76
2023/10/14 01:16:37;;;;;;;9.57;2.55;;;;;;;;;;12852058;23;20021;-75
2023/10/14 01:21:43;;;;;;;10.43;3.03;;;;;;;;;;12860964;23;20032;-76
2023/10/14 01:26:56;;;;;;;11.45;3.03;;;;;;;;;;12860101;23;20025;-76
2023/10/14 01:32:25;;;;;;;10.48;2.85;;;;;;;;;;12859181;23;20064;-76
2023/10/14 01:37:35;;;;;;;7.07;2.83;;;;;;;;;;12857140;23;20035;-75
2023/10/14 01:42:40;;;;;;;4.13;1.80;;;;;;;;;;12892115;22;20098;-87
2023/10/14 01:47:49;;;;;;;4.07;2.05;;;;;;;;;;12968775;22;20356;-87
2023/10/14 01:52:52;;;;;;;6.32;2.08;;;;;;;;;;12968237;22;20023;-88
2023/10/14 01:58:02;;;;;;;4.40;1.75;;;;;;;;;;12970047;22;20041;-87
2023/10/14 02:03:07;;;;;;;5.60;1.77;;;;;;;;;;12966636;22;20933;-87
2023/10/14 02:08:14;;;;;;;4.38;1.83;;;;;;;;;;12969229;22;20023;-88
2023/10/14 02:13:22;;;;;;;4.15;1.85;;;;;;;;;;12971256;22;20069;-92
2023/10/14 02:18:26;;;;;;;5.70;1.90;;;;;;;;;;12972301;22;20020;-90
2023/10/14 02:23:43;;;;;;;3.47;1.30;;;;;;;;;;12970222;22;20510;-88
2023/10/14 02:28:48;;;;;;;10.85;1.77;;;;;;;;;;12971721;22;20016;-91
2023/10/14 02:33:52;;;;;;;3.93;1.27;;;;;;;;;;12945058;22;20052;-89
2023/10/14 02:38:56;;;;;;;3.42;1.10;;;;;;;;;;12972710;22;20020;-89
2023/10/14 02:44:27;;;;;;;2.60;0.88;;;;;;;;;;12974932;22;20019;-92
2023/10/14 02:49:36;;;;;;;11.02;1.15;;;;;;;;;;12994232;22;20090;-89
2023/10/14 02:54:42;;;;;;;4.13;0.80;;;;;;;;;;13000890;22;20099;-89
2023/10/14 02:59:48;;;;;;;1.58;0.80;;;;;;;;;;12974175;22;20031;-89
2023/10/14 03:05:08;;;;;;;2.53;0.90;;;;;;;;;;12973308;22;20028;-92
2023/10/14 03:10:18;;;;;;;2.13;0.85;;;;;;;;;;12976221;22;20019;-92
2023/10/14 03:15:23;;;;;;;3.40;1.20;;;;;;;;;;12973639;22;20584;-90
2023/10/14 03:20:39;;;;;;;3.90;1.02;;;;;;;;;;12972080;22;20034;-87
2023/10/14 03:25:43;;;;;;;1.65;0.60;;;;;;;;;;12973064;22;20357;-89
2023/10/14 03:30:55;;;;;;;1.70;0.60;;;;;;;;;;12973869;22;20024;-90
2023/10/14 03:36:03;;;;;;;2.47;0.50;;;;;;;;;;12975077;22;20027;-88
2023/10/14 03:41:16;;;;;;;5.57;0.80;;;;;;;;;;12974625;22;20415;-89
2023/10/14 03:46:29;;;;;;;2.70;0.70;;;;;;;;;;12972733;22;20431;-91
2023/10/14 03:51:33;;;;;;;2.00;0.63;;;;;;;;;;12946420;22;20082;-89
2023/10/14 03:56:42;;;;;;;2.55;0.63;;;;;;;;;;12971829;22;20396;-90
2023/10/14 04:01:51;;;;;;;3.28;0.75;;;;;;;;;;12973256;22;20027;-89
2023/10/14 04:12:29;;;;;;;2.55;0.80;;;;;;;;;;12974997;22;20058;-89
2023/10/14 04:17:35;;;;;;;5.20;0.50;;;;;;;;;;12976974;22;20098;-89
2023/10/14 04:22:39;;;;;;;2.28;0.70;;;;;;;;;;12975311;22;20026;-89
2023/10/14 04:27:55;;;;;;;2.70;0.57;;;;;;;;;;12979138;22;20050;-89
2023/10/14 04:33:16;;;;;;;2.92;0.68;;;;;;;;;;12972694;22;20021;-88
2023/10/14 04:38:27;;;;;;;2.38;0.38;;;;;;;;;;12973573;22;20110;-88
2023/10/14 04:43:54;;;;;;;0.28;0.10;;;;;;;;;;12975154;22;20125;-89
2023/10/14 04:49:06;;;;;;;0.63;0.25;;;;;;;;;;12908577;22;20028;-90
2023/10/14 04:54:10;;;;;;;0.35;0.20;;;;;;;;;;12884479;22;20024;-91
2023/10/14 04:59:19;;;;;;;1.55;0.17;;;;;;;;;;12909689;22;20047;-91
2023/10/14 05:04:30;;;;;;;0.55;0.13;;;;;;;;;;12912462;22;20020;-91
2023/10/14 05:09:39;;;;;;;1.67;0.10;;;;;;;;;;12911382;22;20465;-90
2023/10/14 05:14:43;;;;;;;0.30;0.10;;;;;;;;;;12908942;22;20062;-91
2023/10/14 05:19:54;;;;;;;0.08;0.05;;;;;;;;;;12889722;22;20074;-91
2023/10/14 05:25:03;;;;;;;0.10;0.10;;;;;;;;;;12909354;22;20489;-90
2023/10/14 05:30:09;;;;;;;0.10;0.05;;;;;;;;;;12908285;22;20102;-91
2023/10/14 05:35:14;;;;;;;0.65;0.10;;;;;;;;;;12885819;22;20071;-91
2023/10/14 05:40:21;;;;;;;0.00;0.00;;;;;;;;;;12911415;22;20484;-90
2023/10/14 05:45:28;;;;;;;0.10;0.10;;;;;;;;;;12910745;22;20032;-91
2023/10/14 05:50:35;;;;;;;0.10;0.10;;;;;;;;;;12885209;22;20016;-91
2023/10/14 05:55:39;;;;;;;0.82;0.20;;;;;;;;;;12909396;22;20034;-90
2023/10/14 06:00:43;;;;;;;0.73;0.20;;;;;;;;;;12910456;22;20099;-91
2023/10/14 06:05:49;;;;;;;0.25;0.13;;;;;;;;;;12908529;22;20525;-90
2023/10/14 06:10:58;;;;;;;0.43;0.20;;;;;;;;;;12883182;22;20020;-89
2023/10/14 06:16:09;;;;;;;0.43;0.32;;;;;;;;;;12883962;22;20031;-94
2023/10/14 06:21:19;;;;;;;0.43;0.32;;;;;;;;;;12908275;22;20047;-91
2023/10/14 06:26:34;;;;;;;1.42;0.30;;;;;;;;;;12908834;22;20588;-91
2023/10/14 06:31:48;;;;;;;1.98;0.73;;;;;;;;;;12910836;22;20020;-89
2023/10/14 06:36:53;;;;;;;2.05;0.73;;;;;;;;;;12884181;23;20034;-91
2023/10/14 06:42:00;;;;;;;1.70;1.00;;;;;;;;;;12881873;23;20047;-92
2023/10/14 06:47:09;;;;;;;2.60;0.82;;;;;;;;;;12909223;23;20034;-91
2023/10/14 06:52:20;;;;;;;3.88;1.02;;;;;;;;;;12882208;23;20020;-91
2023/10/14 06:57:24;;;;;;;2.22;0.80;;;;;;;;;;12908706;23;20024;-91
2023/10/14 07:02:31;;;;;;;4.47;1.30;;;;;;;;;;12905911;23;20048;-91
2023/10/14 07:08:03;;;;;;;2.38;0.80;;;;;;;;;;12882302;23;20027;-91
2023/10/14 07:13:06;;;;;;;4.03;1.02;;;;;;;;;;12882326;23;20095;-89
2023/10/14 07:18:13;;;;;;;4.13;1.55;;;;;;;;;;12905479;23;20043;-89
2023/10/14 07:23:34;;;;;;;;;;;;;;;;;;12895492;23;20024;-90
2023/10/14 07:28:51;;;;;;;2.22;0.73;;;;;;;;;;12911364;23;19922;-92
2023/10/14 07:39:56;;;;;;;4.00;0.90;;;;;;;;;;12899831;23;20020;-95
2023/10/14 07:45:14;;;;;;;3.88;1.20;;;;;;;;;;12877983;23;20040;-93
2023/10/14 07:51:10;;;;;;;6.00;1.17;;;;;;;;;;12761219;23;20073;-91
2023/10/14 08:03:06;;;;;;;8.52;1.80;;;;;;;;;;12716925;23;20422;-91
2023/10/14 08:08:17;;;;;;;4.10;1.20;;;;;;;;;;12878306;23;20188;-91
2023/10/14 08:13:49;;;;;;;5.22;1.25;;;;;;;;;;12922565;23;20342;-93
2023/10/14 08:19:12;;;;;;;2.65;1.40;;;;;;;;;;12907944;22;20024;-92
2023/10/14 08:24:55;;;;;;;4.78;1.52;;;;;;;;;;12914365;22;20016;-92
2023/10/14 08:30:10;;;;;;;6.47;1.70;;;;;;;;;;12885153;22;20094;-94
2023/10/14 08:35:17;;;;;;;4.55;1.20;;;;;;;;;;12893847;23;20422;-93
2023/10/14 08:40:26;;;;;;;5.13;1.60;;;;;;;;;;12902295;22;20031;-92
2023/10/14 08:45:35;;;;;;;4.65;1.55;;;;;;;;;;12916963;22;20034;-93
2023/10/14 08:50:41;;;;;;;3.78;1.40;;;;;;;;;;12912449;22;20024;-94
2023/10/14 08:55:47;;;;;;;4.13;1.23;;;;;;;;;;12901098;22;20357;-94
2023/10/14 09:00:54;;;;;;;5.80;1.65;;;;;;;;;;12885863;22;20035;-96
2023/10/14 09:05:58;;;;;;;6.78;1.10;;;;;;;;;;12912878;22;20103;-91
2023/10/14 09:11:03;;;;;;;4.97;1.00;;;;;;;;;;12885625;22;20417;-91
2023/10/14 09:16:12;;;;;;;2.20;1.10;;;;;;;;;;12912864;22;20070;-91
2023/10/14 09:21:17;;;;;;;2.75;1.05;;;;;;;;;;12911036;22;20024;-94
2023/10/14 09:26:36;;;;;;;2.25;0.63;;;;;;;;;;12911279;22;20020;-92
2023/10/14 09:31:46;;;;;;;3.30;0.82;;;;;;;;;;12912928;22;20024;-92
2023/10/14 09:36:52;;;;;;;4.40;1.20;;;;;;;;;;12912082;22;20020;-91
2023/10/14 09:41:58;;;;;;;3.53;1.00;;;;;;;;;;12911721;22;20020;-90
2023/10/14 09:47:09;;;;;;;2.53;0.70;;;;;;;;;;12891379;23;20056;-91
2023/10/14 09:52:15;;;;;;;2.25;0.77;;;;;;;;;;12884362;23;20047;-90
2023/10/14 09:57:19;;;;;;;1.30;0.55;;;;;;;;;;12884710;23;20784;-91
2023/10/14 10:02:25;;;;;;;3.17;0.50;;;;;;;;;;12910814;22;20020;-91
2023/10/14 10:07:43;;;;;;;3.55;0.93;;;;;;;;;;12909358;23;20055;-94
2023/10/14 10:12:53;;;;;;;2.72;0.80;;;;;;;;;;12909657;22;20103;-90
2023/10/14 10:18:03;;;;;;;2.40;0.60;;;;;;;;;;12907275;22;20036;-90
2023/10/14 10:23:09;;;;;;;5.95;1.02;;;;;;;;;;12906241;22;20466;-90
2023/10/14 10:28:40;;;;;;;4.70;0.82;;;;;;;;;;12880982;23;20028;-90
2023/10/14 10:33:54;;;;;;;4.05;0.90;;;;;;;;;;12892757;23;20016;-90
2023/10/14 10:39:15;;;;;;;4.97;1.25;;;;;;;;;;12908980;22;20108;-90
2023/10/14 10:44:20;;;;;;;2.80;1.10;;;;;;;;;;12911837;22;20062;-92
2023/10/14 10:49:56;;;;;;;4.10;1.05;;;;;;;;;;12914086;22;20032;-90
2023/10/14 10:55:01;;;;;;;1.25;0.60;;;;;;;;;;12935213;22;20019;-91
2023/10/14 11:00:09;;;;;;;1.90;0.88;;;;;;;;;;12911748;22;20028;-91
2023/10/14 11:05:15;;;;;;;2.00;0.70;;;;;;;;;;12913380;22;20031;-91
2023/10/14 11:10:19;;;;;;;3.53;0.60;;;;;;;;;;12913388;22;20035;-90
2023/10/14 11:15:25;;;;;;;2.03;0.73;;;;;;;;;;12913759;22;20292;-90
2023/10/14 11:20:31;;;;;;;;;;;;;;;;;;12887819;22;20020;-90
2023/10/14 11:25:40;;;;;;;2.10;0.70;;;;;;;;;;12912818;22;19915;-90
2023/10/14 11:30:47;;;;;;;0.93;0.52;;;;;;;;;;12912350;22;20020;-90
2023/10/14 11:35:52;;;;;;;2.83;0.90;;;;;;;;;;12913458;22;20032;-90
2023/10/14 11:40:58;;;;;;;2.20;0.65;;;;;;;;;;12913398;22;20032;-90
2023/10/14 11:46:02;;;;;;;1.97;0.60;;;;;;;;;;12884016;22;20032;-90
2023/10/14 11:51:11;;;;;;;3.88;1.00;;;;;;;;;;12914327;22;20255;-90
2023/10/14 11:56:15;;;;;;;3.65;0.85;;;;;;;;;;12889470;22;20074;-90
2023/10/14 12:01:23;;;;;;;3.72;0.90;;;;;;;;;;12918452;22;20016;-90
2023/10/14 12:06:30;;;;;;;1.92;0.70;;;;;;;;;;12917314;22;20028;-90
2023/10/14 12:11:41;;;;;;;1.70;0.60;;;;;;;;;;12913204;22;20030;-90
2023/10/14 12:16:45;;;;;;;1.50;0.80;;;;;;;;;;12889097;22;20024;-89
2023/10/14 12:21:50;;;;;;;3.25;0.70;;;;;;;;;;12890816;23;20044;-90
2023/10/14 12:26:54;;;;;;;3.90;0.77;;;;;;;;;;12915143;22;20099;-90
2023/10/14 12:31:59;;;;;;;3.95;1.17;;;;;;;;;;12913826;23;20095;-92
2023/10/14 12:37:18;;;;;;;1.98;0.60;;;;;;;;;;12915818;22;20689;-92
2023/10/14 12:42:23;;;;;;;2.45;0.88;;;;;;;;;;12938277;22;20473;-89
2023/10/14 12:47:29;;;;;;;2.63;0.60;;;;;;;;;;12897242;23;20020;-90
2023/10/14 12:52:38;;;;;;;2.67;0.70;;;;;;;;;;12914304;22;20031;-89
2023/10/14 12:57:42;;;;;;;2.88;1.13;;;;;;;;;;12911304;23;20035;-93
2023/10/14 13:02:46;;;;;;;2.58;0.95;;;;;;;;;;12910465;23;20024;-93
2023/10/14 13:07:52;;;;;;;5.45;1.23;;;;;;;;;;12885773;23;20143;-90
2023/10/14 13:12:57;;;;;;;4.63;1.13;;;;;;;;;;12911181;23;20054;-89
2023/10/14 13:18:04;;;;;;;2.90;0.70;;;;;;;;;;12935761;22;20020;-92
2023/10/14 13:23:12;;;;;;;2.15;0.65;;;;;;;;;;12910578;23;20106;-89
2023/10/14 13:28:17;;;;;;;1.83;0.70;;;;;;;;;;12911881;22;20028;-90
2023/10/14 13:33:20;;;;;;;2.22;0.88;;;;;;;;;;12910571;23;20035;-90
2023/10/14 13:38:25;;;;;;;1.35;0.60;;;;;;;;;;12908708;23;20090;-89
2023/10/14 13:43:29;;;;;;;4.55;1.05;;;;;;;;;;12911826;22;20022;-75
2023/10/14 13:48:33;;;;;;;1.58;0.50;;;;;;;;;;12871257;22;20519;-74
2023/10/14 13:53:49;;;;;;;3.25;0.75;;;;;;;;;;12851325;23;20024;-74
2023/10/14 13:58:59;;;;;;;2.08;0.65;;;;;;;;;;12847787;23;20140;-74
2023/10/14 14:04:02;;;;;;;2.17;0.80;;;;;;;;;;12869836;23;20047;-74
2023/10/14 14:09:08;;;;;;;2.45;1.00;;;;;;;;;;12866159;23;20471;-74
2023/10/14 14:14:14;;;;;;;1.63;0.70;;;;;;;;;;12869966;23;20103;-75
2023/10/14 14:19:19;;;;;;;1.42;0.73;;;;;;;;;;12866509;23;20022;-74
2023/10/14 14:24:25;;;;;;;2.05;0.70;;;;;;;;;;12868605;23;20095;-74
2023/10/14 14:29:30;;;;;;;3.55;1.00;;;;;;;;;;12867614;23;20067;-74
2023/10/14 14:34:33;;;;;;;2.55;0.60;;;;;;;;;;12823817;23;20028;-74
2023/10/14 14:39:40;;;;;;;2.53;0.65;;;;;;;;;;12872082;23;20024;-74
2023/10/14 14:44:43;;;;;;;2.25;0.90;;;;;;;;;;12825437;23;20035;-74
2023/10/14 14:49:48;;;;;;;3.78;1.17;;;;;;;;;;12871957;23;20421;-74
2023/10/14 14:54:54;;;;;;;2.83;0.82;;;;;;;;;;12825735;23;20020;-74
2023/10/14 14:59:57;;;;;;;3.10;0.90;;;;;;;;;;12870975;23;20024;-75
2023/10/14 15:05:03;;;;;;;3.10;0.90;;;;;;;;;;12868052;23;20516;-75
2023/10/14 15:10:10;;;;;;;2.40;0.80;;;;;;;;;;12840574;23;20044;-74
2023/10/14 15:15:15;;;;;;;3.80;1.20;;;;;;;;;;12867288;23;20028;-74
2023/10/14 15:20:19;;;;;;;2.40;0.80;;;;;;;;;;12868745;23;20048;-74
2023/10/14 15:25:24;;;;;;;3.08;1.08;;;;;;;;;;12865468;23;20031;-74
2023/10/14 15:30:28;;;;;;;1.93;0.80;;;;;;;;;;12867616;23;20377;-74
2023/10/14 15:35:49;;;;;;;5.30;1.08;;;;;;;;;;12884862;23;20032;-74
2023/10/14 15:41:06;;;;;;;3.88;1.20;;;;;;;;;;12917058;23;20024;-75
2023/10/14 15:46:12;;;;;;;2.08;0.80;;;;;;;;;;12919944;22;20024;-74
2023/10/14 15:51:17;;;;;;;;;;;;;;;;;;12883320;23;20607;-74
2023/10/14 15:56:22;;;;;;;1.97;0.90;;;;;;;;;;12882095;22;19916;-74
2023/10/14 16:01:25;;;;;;;2.30;0.73;;;;;;;;;;12925296;23;20107;-74
2023/10/14 16:06:30;;;;;;;0.95;0.50;;;;;;;;;;12921299;22;20020;-74
2023/10/14 16:11:34;;;;;;;1.13;0.55;;;;;;;;;;12921242;23;20043;-74
2023/10/14 16:16:39;;;;;;;3.38;0.98;;;;;;;;;;12924563;22;20095;-75
2023/10/14 16:21:42;;;;;;;1.77;0.68;;;;;;;;;;12921719;23;20024;-74
2023/10/14 16:26:47;;;;;;;1.63;0.60;;;;;;;;;;12924052;22;20024;-74
2023/10/14 16:31:50;;;;;;;1.48;0.60;;;;;;;;;;12921231;23;20138;-74
2023/10/14 16:36:53;;;;;;;1.65;0.60;;;;;;;;;;12916291;22;20013;-74
2023/10/14 16:41:58;;;;;;;2.10;0.50;;;;;;;;;;12884887;23;20024;-74
2023/10/14 16:47:01;;;;;;;2.92;0.70;;;;;;;;;;12888988;22;20047;-74
2023/10/14 16:52:05;;;;;;;6.88;1.15;;;;;;;;;;12923307;23;20054;-74
2023/10/14 16:57:10;;;;;;;1.50;0.70;;;;;;;;;;12920958;22;20391;-75
2023/10/14 17:02:15;;;;;;;2.42;0.70;;;;;;;;;;12915054;23;20070;-74
2023/10/14 17:07:18;;;;;;;3.60;1.40;;;;;;;;;;12915875;22;20019;-74
2023/10/14 17:12:23;;;;;;;2.45;0.80;;;;;;;;;;12920089;23;20055;-74
2023/10/14 17:17:26;;;;;;;2.25;0.60;;;;;;;;;;12920520;22;20091;-74
2023/10/14 17:22:30;;;;;;;6.85;1.63;;;;;;;;;;12920927;23;20099;-74
2023/10/14 17:27:35;;;;;;;2.90;1.10;;;;;;;;;;12886790;22;20091;-74
2023/10/14 17:32:40;;;;;;;4.28;0.90;;;;;;;;;;12918284;23;20095;-74
2023/10/14 17:37:43;;;;;;;4.97;1.25;;;;;;;;;;12887605;22;20040;-74
2023/10/14 17:42:51;;;;;;;2.95;0.93;;;;;;;;;;12916342;23;20020;-74
2023/10/14 17:47:56;;;;;;;1.83;1.23;;;;;;;;;;12917766;22;20043;-74
2023/10/14 17:53:01;;;;;;;1.33;0.67;;;;;;;;;;12918350;23;20470;-74
2023/10/14 17:58:05;;;;;;;1.88;0.60;;;;;;;;;;12887436;22;20384;-74
2023/10/14 18:03:11;;;;;;;1.67;0.70;;;;;;;;;;12916720;23;20103;-74
2023/10/14 18:08:15;;;;;;;1.43;0.57;;;;;;;;;;12915979;22;20055;-74
2023/10/14 18:13:22;;;;;;;4.82;1.30;;;;;;;;;;12915467;23;20312;-74
2023/10/14 18:18:25;;;;;;;4.07;0.90;;;;;;;;;;12915654;22;20396;-74
2023/10/14 18:23:29;;;;;;;3.90;1.25;;;;;;;;;;12915130;23;20035;-74
2023/10/14 18:28:33;;;;;;;5.18;1.23;;;;;;;;;;12913486;22;20032;-74
2023/10/14 18:33:37;;;;;;;1.45;0.77;;;;;;;;;;12914861;23;20055;-74
2023/10/14 18:38:41;;;;;;;4.00;1.20;;;;;;;;;;12913826;22;20482;-74
2023/10/14 18:43:46;;;;;;;3.83;1.27;;;;;;;;;;12913236;23;20030;-74
2023/10/14 18:48:52;;;;;;;2.88;1.00;;;;;;;;;;12886535;23;20411;-74
2023/10/14 18:53:56;;;;;;;2.72;0.90;;;;;;;;;;12934365;23;20039;-74
2023/10/14 18:59:02;;;;;;;3.35;1.20;;;;;;;;;;12933765;22;20441;-74
2023/10/14 19:04:06;;;;;;;;;;;;;;;;;;12914159;23;20115;-74
2023/10/14 19:09:10;;;;;;;3.22;1.42;;;;;;;;;;12932940;22;19915;-74
2023/10/14 19:14:21;;;;;;;1.55;0.90;;;;;;;;;;12931750;23;20022;-74
2023/10/14 19:19:29;;;;;;;2.78;1.27;;;;;;;;;;12767898;22;20028;-74
2023/10/14 19:24:33;;;;;;;5.43;1.55;;;;;;;;;;12792100;23;20024;-74
2023/10/14 19:29:38;;;;;;;4.05;1.42;;;;;;;;;;12765619;23;20120;-74
2023/10/14 19:34:41;;;;;;;3.90;0.98;;;;;;;;;;12808788;23;20036;-74
2023/10/14 19:39:44;;;;;;;3.47;0.98;;;;;;;;;;12792603;23;20537;-74
2023/10/14 19:44:51;;;;;;;3.33;1.13;;;;;;;;;;12841223;22;20091;-75
2023/10/14 19:49:56;;;;;;;4.78;1.27;;;;;;;;;;12801327;23;20642;-75
2023/10/14 19:54:59;;;;;;;6.00;1.20;;;;;;;;;;12790838;23;20037;-75
2023/10/14 20:00:14;;;;;;;2.58;0.90;;;;;;;;;;12805712;23;20040;-75
2023/10/14 20:05:24;;;;;;;3.40;1.60;;;;;;;;;;12805693;23;20032;-74
2023/10/14 20:10:28;;;;;;;6.30;1.70;;;;;;;;;;12804261;23;20055;-75
2023/10/14 20:15:34;;;;;;;2.65;1.15;;;;;;;;;;12804175;23;20080;-75
2023/10/14 20:20:40;;;;;;;3.45;0.98;;;;;;;;;;12802744;23;20107;-75
2023/10/14 20:25:46;;;;;;;;;;;;;;;;;;12803929;23;20364;-75
2023/10/14 20:30:51;;;;;;;3.40;1.25;;;;;;;;;;12802521;23;19916;-75
2023/10/14 20:35:55;;;;;;;4.28;1.17;;;;;;;;;;12802115;23;20029;-75
2023/10/14 20:40:59;;;;;;;4.43;1.33;;;;;;;;;;12762335;23;20021;-75
2023/10/14 20:46:08;;;;;;;2.47;0.95;;;;;;;;;;12801105;23;20096;-75
2023/10/14 20:51:12;;;;;;;4.18;1.27;;;;;;;;;;12800670;23;20342;-75
2023/10/14 20:56:15;;;;;;;2.42;1.20;;;;;;;;;;12798177;23;20080;-75
2023/10/14 21:01:45;;;;;;;4.00;1.23;;;;;;;;;;12810930;23;20047;-75
2023/10/14 21:06:49;;;;;;;4.13;1.20;;;;;;;;;;12846392;23;20025;-75
2023/10/14 21:11:56;;;;;;;2.47;1.00;;;;;;;;;;12834033;23;20025;-75
2023/10/14 21:17:01;;;;;;;1.83;0.88;;;;;;;;;;12848952;23;20037;-75
2023/10/14 21:22:05;;;;;;;4.10;1.50;;;;;;;;;;12855587;23;20032;-75
2023/10/14 21:27:16;;;;;;;3.95;0.88;;;;;;;;;;12845297;23;20459;-75
2023/10/14 21:32:21;;;;;;;2.03;0.75;;;;;;;;;;12847211;23;20021;-75
2023/10/14 21:37:25;;;;;;;2.33;0.93;;;;;;;;;;12855808;23;20076;-75
2023/10/14 21:42:30;;;;;;;2.47;1.00;;;;;;;;;;12849595;23;20028;-75
2023/10/14 21:47:36;;;;;;;2.20;1.02;;;;;;;;;;12855082;23;20645;-75
2023/10/14 21:52:40;;;;;;;1.90;0.80;;;;;;;;;;12848196;23;20031;-75
2023/10/14 21:57:43;;;;;;;2.40;1.17;;;;;;;;;;12847982;23;20028;-75
2023/10/14 22:02:49;;;;;;;3.53;1.65;;;;;;;;;;12852841;23;20341;-75
2023/10/14 22:07:55;;;;;;;5.90;2.53;;;;;;;;;;12850674;23;20021;-75
2023/10/14 22:13:00;;;;;;;7.15;2.92;;;;;;;;;;12853500;23;20024;-75
2023/10/14 22:18:07;;;;;;;3.75;2.13;;;;;;;;;;12848573;23;20119;-75
2023/10/14 22:23:11;;;;;;;5.22;1.70;;;;;;;;;;12850840;23;20035;-75
2023/10/14 22:28:17;;;;;;;3.45;1.38;;;;;;;;;;12850139;23;20063;-75
2023/10/14 22:33:32;;;;;;;2.25;1.10;;;;;;;;;;12848022;23;20108;-76
2023/10/14 22:38:37;;;;;;;5.00;1.10;;;;;;;;;;12847542;23;20031;-75
2023/10/14 22:43:43;;;;;;;2.08;0.98;;;;;;;;;;12849651;23;20024;-75
2023/10/14 22:48:49;;;;;;;1.80;0.90;;;;;;;;;;12848787;23;20472;-77
2023/10/14 22:53:54;;;;;;;2.13;0.90;;;;;;;;;;12871277;23;20124;-75
2023/10/14 22:58:58;;;;;;;1.92;0.90;;;;;;;;;;12873862;23;20016;-75
2023/10/14 23:04:07;;;;;;;2.22;1.00;;;;;;;;;;12852557;23;20064;-75
2023/10/14 23:09:13;;;;;;;2.38;0.88;;;;;;;;;;12852410;23;20021;-75
2023/10/14 23:14:19;;;;;;;1.48;0.80;;;;;;;;;;12851311;23;20028;-75
2023/10/14 23:19:25;;;;;;;3.38;1.45;;;;;;;;;;12855006;23;20024;-75
2023/10/14 23:24:28;;;;;;;1.20;0.80;;;;;;;;;;12853184;23;20085;-75
2023/10/14 23:29:32;;;;;;;1.70;0.90;;;;;;;;;;12871341;23;20326;-75
2023/10/14 23:34:38;;;;;;;1.85;0.85;;;;;;;;;;12854462;23;20468;-75
2023/10/14 23:39:41;;;;;;;1.77;0.80;;;;;;;;;;12854437;23;20518;-75
2023/10/14 23:44:47;;;;;;;3.83;1.13;;;;;;;;;;12870278;23;20112;-75
2023/10/14 23:49:54;;;;;;;;;;;;;;;;;;12853387;23;20036;-75
2023/10/14 23:54:57;;;;;;;;;;;;;;;;;;12855472;23;20359;-75
